Forfar, United Kingdom
Current Conditions -  °F | °C
As of 6:50 AM on Saturday 29 Nov 2014 (Local Time) from EGQL Reporting Station
Haze Haze  
Wind Chill: 50°   Ceiling: 1400
Heat Index: 50°   Visibility: 3mi
Dew Point: 48°   Wind: 12mph
Humidity: 94%   Direction: 120°ESE
Pressure: 29.88"   Gusts: NA
Location:  56.64°N, 2.89°W
Report Text: EGQL 290650Z 12010KT 5000 BR FEW008 BKN014 10/09 Q1012 GRN
Loading
Personal Weather Stations






























Interactive Weather Map New forecast layout! Learn more

10-Day Weather Forecast

Advertisements
Track Severe Weather on mobile